createdAt,value
2023-04-02T00:00:14.612Z,24.00
2023-04-02T00:02:50.370Z,21.03
2023-04-02T00:05:50.482Z,17.80
2023-04-02T00:08:30.985Z,15.27
2023-04-02T00:11:02.464Z,20.40
2023-04-02T00:13:33.888Z,27.00
2023-04-02T00:16:03.286Z,21.30
2023-04-02T00:18:31.738Z,22.47
2023-04-02T00:21:08.443Z,23.60
2023-04-02T00:23:37.623Z,25.97
2023-04-02T00:26:22.928Z,16.67
2023-04-02T00:28:50.715Z,19.27
2023-04-02T00:31:20.758Z,21.67
2023-04-02T00:33:49.778Z,19.10
2023-04-02T00:36:19.941Z,15.43
2023-04-02T00:38:48.893Z,15.87
2023-04-02T00:41:23.449Z,12.27
2023-04-02T00:43:52.232Z,7.87
2023-04-02T00:46:25.147Z,9.25
2023-04-02T00:48:58.905Z,11.70
2023-04-02T00:51:31.012Z,10.87
2023-04-02T00:54:03.121Z,10.52
2023-04-02T00:56:37.804Z,12.53
2023-04-02T00:59:06.342Z,20.20
2023-04-02T01:01:42.533Z,20.27
2023-04-02T01:04:29.012Z,21.50
2023-04-02T01:06:56.717Z,18.60
2023-04-02T01:09:36.444Z,23.10
2023-04-02T01:12:28.999Z,18.17
2023-04-02T01:15:09.678Z,16.93
2023-04-02T01:17:49.652Z,9.13
2023-04-02T01:20:37.234Z,22.30
2023-04-02T01:23:10.415Z,18.17
2023-04-02T01:25:44.592Z,21.40
2023-04-02T01:28:20.396Z,21.73
2023-04-02T01:30:53.682Z,21.00
2023-04-02T01:33:23.793Z,21.40
2023-04-02T01:36:01.693Z,22.73
2023-04-02T01:38:38.722Z,22.47
2023-04-02T01:41:13.176Z,13.07
2023-04-02T01:43:47.430Z,26.40
2023-04-02T01:46:31.864Z,12.30
2023-04-02T01:49:02.293Z,31.33
2023-04-02T01:51:31.926Z,28.70
2023-04-02T01:54:01.749Z,13.57
2023-04-02T01:56:30.924Z,27.20
2023-04-02T01:58:59.433Z,21.90
2023-04-02T02:01:32.844Z,14.57
2023-04-02T02:04:00.669Z,9.10
2023-04-02T02:06:28.400Z,13.80
2023-04-02T02:08:59.288Z,16.27
2023-04-02T02:11:29.510Z,14.30
2023-04-02T02:13:58.692Z,13.47
2023-04-02T02:16:29.904Z,14.83
2023-04-02T02:19:00.888Z,18.80
2023-04-02T02:21:39.750Z,19.00
2023-04-02T02:24:16.213Z,23.03
2023-04-02T02:26:47.074Z,27.03
2023-04-02T02:29:19.552Z,20.03
2023-04-02T02:31:53.394Z,18.70
2023-04-02T02:34:25.872Z,20.80
2023-04-02T02:36:57.383Z,22.97
2023-04-02T02:39:31.258Z,19.43
2023-04-02T02:42:03.758Z,18.97
2023-04-02T02:44:36.213Z,16.30
2023-04-02T02:47:11.188Z,18.87
2023-04-02T02:49:41.746Z,16.50
2023-04-02T02:52:16.697Z,17.70
2023-04-02T02:54:47.200Z,16.60
2023-04-02T02:57:20.001Z,20.90
2023-04-02T02:59:48.166Z,19.27
2023-04-02T03:02:17.294Z,18.20
2023-04-02T03:04:48.675Z,20.97
2023-04-02T03:07:19.234Z,16.03
2023-04-02T03:09:53.440Z,17.33
2023-04-02T03:12:43.052Z,16.50
2023-04-02T03:15:19.520Z,18.97
2023-04-02T03:17:51.383Z,21.07
2023-04-02T03:20:25.367Z,30.77
2023-04-02T03:22:58.679Z,27.63
2023-04-02T03:25:31.854Z,26.23
2023-04-02T03:28:03.321Z,21.67
2023-04-02T03:30:38.014Z,22.50
2023-04-02T03:33:14.157Z,23.97
2023-04-02T03:35:45.476Z,25.60
2023-04-02T03:38:19.195Z,21.90
2023-04-02T03:40:58.995Z,33.40
2023-04-02T03:43:27.949Z,26.30
2023-04-02T03:46:01.417Z,138.10
2023-04-02T03:48:35.933Z,138.70
2023-04-02T03:51:07.936Z,329.67
2023-04-02T03:53:35.792Z,228.10
2023-04-02T03:56:03.845Z,298.15
2023-04-02T03:58:39.561Z,360.50
2023-04-02T04:01:17.390Z,370.40
2023-04-02T04:03:50.740Z,181.67
2023-04-02T04:06:24.934Z,151.67
2023-04-02T04:08:55.529Z,167.30
2023-04-02T04:11:28.107Z,213.47
2023-04-02T04:14:00.566Z,277.70
2023-04-02T04:16:34.284Z,261.17
2023-04-02T04:19:08.070Z,76.97
2023-04-02T04:21:38.091Z,62.57
2023-04-02T04:24:08.153Z,94.00
2023-04-02T04:26:42.146Z,75.70
2023-04-02T04:29:20.527Z,77.20
2023-04-02T04:31:50.321Z,75.87
2023-04-02T04:34:24.853Z,67.60
2023-04-02T04:36:55.982Z,73.50
2023-04-02T04:39:29.798Z,77.47
2023-04-02T04:42:00.504Z,124.03
2023-04-02T04:44:37.780Z,104.43
2023-04-02T04:47:12.337Z,366.53
2023-04-02T04:49:44.209Z,433.90
2023-04-02T04:52:18.640Z,636.93
2023-04-02T04:54:46.955Z,547.63
2023-04-02T04:57:28.497Z,101.63
2023-04-02T05:00:06.300Z,94.13
2023-04-02T05:02:38.989Z,264.63
2023-04-02T05:05:18.975Z,230.17
2023-04-02T05:07:51.864Z,73.43
2023-04-02T05:10:26.470Z,65.67
2023-04-02T05:12:58.012Z,60.37
2023-04-02T05:15:31.152Z,51.27
2023-04-02T05:18:07.240Z,59.53
2023-04-02T05:20:43.468Z,96.53
2023-04-02T05:23:18.646Z,91.90
2023-04-02T05:25:59.132Z,114.90
2023-04-02T05:28:32.947Z,85.47
2023-04-02T05:31:04.317Z,94.77
2023-04-02T05:33:34.674Z,93.60
2023-04-02T05:36:06.238Z,80.20
2023-04-02T05:38:36.315Z,87.70
2023-04-02T05:41:07.756Z,84.03
2023-04-02T05:43:37.958Z,62.07
2023-04-02T05:46:16.228Z,55.10
2023-04-02T05:48:46.113Z,56.23
2023-04-02T05:51:20.006Z,72.70
2023-04-02T05:53:50.795Z,76.23
2023-04-02T05:56:22.686Z,90.00
2023-04-02T05:58:53.231Z,117.13
2023-04-02T06:01:29.303Z,104.70
2023-04-02T06:04:04.566Z,93.93
2023-04-02T06:06:55.468Z,140.50
2023-04-02T06:09:29.800Z,94.37
2023-04-02T06:12:05.452Z,92.97
2023-04-02T06:14:32.973Z,69.53
2023-04-02T06:17:00.972Z,75.27
2023-04-02T06:19:33.817Z,78.57
2023-04-02T06:22:12.720Z,86.90
2023-04-02T06:24:42.051Z,121.13
2023-04-02T06:27:13.766Z,140.87
2023-04-02T06:29:45.342Z,119.60
2023-04-02T06:32:13.842Z,156.57
2023-04-02T06:34:42.916Z,143.40
2023-04-02T06:37:20.901Z,104.90
2023-04-02T06:39:48.897Z,140.37
2023-04-02T06:42:20.413Z,125.87
2023-04-02T06:44:48.119Z,155.47
2023-04-02T06:47:24.837Z,134.57
2023-04-02T06:49:58.434Z,151.37
2023-04-02T06:52:31.614Z,133.90
2023-04-02T06:55:00.351Z,87.97
2023-04-02T06:57:27.923Z,130.83
2023-04-02T06:59:55.666Z,115.20
2023-04-02T07:02:34.357Z,107.10
2023-04-02T07:05:04.661Z,97.00
2023-04-02T07:07:33.537Z,73.80
2023-04-02T07:10:01.038Z,62.77
2023-04-02T07:12:28.593Z,54.83
2023-04-02T07:14:56.165Z,32.67
2023-04-02T07:17:23.698Z,28.83
2023-04-02T07:19:51.214Z,43.43
2023-04-02T07:22:19.440Z,35.78
2023-04-02T07:24:48.502Z,35.07
2023-04-02T07:27:16.243Z,31.50
2023-04-02T07:29:43.754Z,35.63
2023-04-02T07:32:12.160Z,33.83
2023-04-02T07:34:40.557Z,31.27
2023-04-02T07:37:08.613Z,37.47
2023-04-02T07:39:38.333Z,26.30
2023-04-02T07:42:08.632Z,34.60
2023-04-02T07:44:36.260Z,26.60
2023-04-02T07:47:03.851Z,28.63
2023-04-02T07:49:31.488Z,32.63
2023-04-02T07:51:58.945Z,31.40
2023-04-02T07:54:27.139Z,24.77
2023-04-02T07:56:54.696Z,24.87
2023-04-02T07:59:23.629Z,24.75
2023-04-02T08:01:52.805Z,24.17
2023-04-02T08:04:21.769Z,33.65
2023-04-02T08:06:50.541Z,26.43
2023-04-02T08:09:18.418Z,24.88
2023-04-02T08:11:46.490Z,27.17
2023-04-02T08:14:14.190Z,15.93
2023-04-02T08:16:48.463Z,19.10
2023-04-02T08:19:16.407Z,20.37
2023-04-02T08:21:43.923Z,23.03
2023-04-02T08:24:11.689Z,17.80
2023-04-02T08:26:39.164Z,24.73
2023-04-02T08:29:06.629Z,28.85
2023-04-02T08:31:34.065Z,61.47
2023-04-02T08:34:03.276Z,112.23
2023-04-02T08:36:34.862Z,128.40
2023-04-02T08:39:02.538Z,47.53
2023-04-02T08:41:32.138Z,31.75
2023-04-02T08:44:19.334Z,54.05
2023-04-02T08:46:50.262Z,129.80
2023-04-02T08:49:28.781Z,114.53
2023-04-02T08:51:56.464Z,142.05
2023-04-02T08:54:28.090Z,141.05
2023-04-02T08:57:02.073Z,132.77
2023-04-02T08:59:33.855Z,127.37
2023-04-02T09:02:25.699Z,137.97
2023-04-02T09:04:55.021Z,133.57
2023-04-02T09:07:22.633Z,97.75
2023-04-02T09:09:51.596Z,74.45
2023-04-02T09:12:21.471Z,42.73
2023-04-02T09:14:58.999Z,69.45
2023-04-02T09:17:27.863Z,115.25
2023-04-02T09:19:59.758Z,75.18
2023-04-02T09:22:29.069Z,84.65
2023-04-02T09:24:58.191Z,74.88
2023-04-02T09:27:29.112Z,43.47
2023-04-02T09:30:03.535Z,35.20
2023-04-02T09:32:50.251Z,36.63
2023-04-02T09:35:25.980Z,72.82
2023-04-02T09:38:30.583Z,91.00
2023-04-02T09:41:01.271Z,62.88
2023-04-02T09:43:30.629Z,108.03
2023-04-02T09:46:01.344Z,56.03
2023-04-02T09:48:31.589Z,70.15
2023-04-02T09:51:08.334Z,128.77
2023-04-02T09:53:37.249Z,82.07
2023-04-02T09:56:17.108Z,70.15
2023-04-02T09:58:45.999Z,55.53
2023-04-02T10:01:30.105Z,51.75
2023-04-02T10:03:59.234Z,78.47
2023-04-02T10:06:29.266Z,89.90
2023-04-02T10:08:56.904Z,91.10
2023-04-02T10:11:36.409Z,149.70
2023-04-02T10:14:16.815Z,94.43
2023-04-02T10:16:48.570Z,96.30
2023-04-02T10:19:23.666Z,71.47
2023-04-02T10:21:54.824Z,113.77
2023-04-02T10:24:22.263Z,133.50
2023-04-02T10:27:01.914Z,88.70
2023-04-02T10:29:42.873Z,40.53
2023-04-02T10:32:15.747Z,46.37
2023-04-02T10:34:50.645Z,79.57
2023-04-02T10:37:39.526Z,91.37
2023-04-02T10:40:15.663Z,118.70
2023-04-02T10:42:49.199Z,25.77
2023-04-02T10:45:24.674Z,21.50
2023-04-02T10:48:00.515Z,42.20
2023-04-02T10:50:33.456Z,44.50
2023-04-02T10:53:12.019Z,47.22
2023-04-02T10:55:44.643Z,40.27
2023-04-02T10:58:24.212Z,43.07
2023-04-02T11:00:54.830Z,130.27
2023-04-02T11:03:32.483Z,74.27
2023-04-02T11:06:05.186Z,56.17
2023-04-02T11:08:42.296Z,36.70
2023-04-02T11:11:15.049Z,34.10
2023-04-02T11:13:53.394Z,38.13
2023-04-02T11:16:21.444Z,37.90
2023-04-02T11:19:11.174Z,31.53
2023-04-02T11:21:54.957Z,53.20
2023-04-02T11:24:37.809Z,35.30
2023-04-02T11:27:08.291Z,27.80
2023-04-02T11:29:38.118Z,60.15
2023-04-02T11:32:27.474Z,78.85
2023-04-02T11:35:25.884Z,77.70
2023-04-02T11:37:54.670Z,75.53
2023-04-02T11:40:48.111Z,64.67
2023-04-02T11:43:51.314Z,49.03
2023-04-02T11:46:46.594Z,46.83
2023-04-02T11:49:41.826Z,46.80
2023-04-02T11:52:22.149Z,46.50
2023-04-02T11:54:58.226Z,31.80
2023-04-02T11:57:48.547Z,82.20
2023-04-02T12:00:33.858Z,70.68
2023-04-02T12:03:21.010Z,250.37
2023-04-02T12:05:58.509Z,163.67
2023-04-02T12:08:50.844Z,121.23
2023-04-02T12:11:33.657Z,229.53
2023-04-02T12:14:03.659Z,226.80
2023-04-02T12:16:35.325Z,85.70
2023-04-02T12:19:03.412Z,111.37
2023-04-02T12:21:31.087Z,170.77
2023-04-02T12:24:00.278Z,147.37
2023-04-02T12:26:37.377Z,40.47
2023-04-02T12:29:24.720Z,75.10
2023-04-02T12:31:53.294Z,72.77
2023-04-02T12:34:22.789Z,105.27
2023-04-02T12:36:55.636Z,123.00
2023-04-02T12:39:25.843Z,47.63
2023-04-02T12:41:55.016Z,33.17
2023-04-02T12:44:25.693Z,41.30
2023-04-02T12:46:54.096Z,91.72
2023-04-02T12:49:27.964Z,47.00
2023-04-02T12:51:56.557Z,19.60
2023-04-02T12:54:24.638Z,21.80
2023-04-02T12:56:52.628Z,93.55
2023-04-02T12:59:31.812Z,17.40
2023-04-02T13:02:01.077Z,7.75
2023-04-02T13:04:29.018Z,8.77
2023-04-02T13:06:57.373Z,8.30
2023-04-02T13:09:32.067Z,9.37
2023-04-02T13:12:00.228Z,17.00
2023-04-02T13:14:29.332Z,7.83
2023-04-02T13:16:57.144Z,8.30
2023-04-02T13:19:31.091Z,9.33
2023-04-02T13:22:00.268Z,8.75
2023-04-02T13:24:29.439Z,9.67
2023-04-02T13:26:59.109Z,9.40
2023-04-02T13:29:30.304Z,6.33
2023-04-02T13:32:00.138Z,8.83
2023-04-02T13:34:27.751Z,7.50
2023-04-02T13:36:55.466Z,7.07
2023-04-02T13:39:22.960Z,7.17
2023-04-02T13:41:53.132Z,7.85
2023-04-02T13:44:23.849Z,5.47
2023-04-02T13:46:54.309Z,15.50
2023-04-02T13:49:22.925Z,7.93
2023-04-02T13:51:52.123Z,9.07
2023-04-02T13:54:24.674Z,9.87
2023-04-02T13:56:52.589Z,10.63
2023-04-02T13:59:20.268Z,10.43
2023-04-02T14:01:48.465Z,13.60
2023-04-02T14:04:22.894Z,19.87
2023-04-02T14:07:09.652Z,172.37
2023-04-02T14:09:47.701Z,123.03
2023-04-02T14:12:24.690Z,165.53
2023-04-02T14:15:05.247Z,162.57
2023-04-02T14:17:47.339Z,46.97
2023-04-02T14:20:31.891Z,233.80
2023-04-02T14:23:22.971Z,60.07
2023-04-02T14:26:00.806Z,265.57
2023-04-02T14:28:39.148Z,464.07
2023-04-02T14:31:15.884Z,467.23
2023-04-02T14:33:52.393Z,299.47
2023-04-02T14:36:29.214Z,234.23
2023-04-02T14:39:04.146Z,244.50
2023-04-02T14:41:40.626Z,82.43
2023-04-02T14:44:09.559Z,91.97
2023-04-02T14:46:38.784Z,71.13
2023-04-02T14:49:19.781Z,71.83
2023-04-02T14:51:51.918Z,198.30
2023-04-02T14:54:28.399Z,129.47
2023-04-02T14:56:59.567Z,68.67
2023-04-02T14:59:31.562Z,126.90
2023-04-02T15:02:04.619Z,378.10
2023-04-02T15:04:36.849Z,152.73
2023-04-02T15:07:08.821Z,219.97
2023-04-02T15:09:41.433Z,187.63
2023-04-02T15:12:14.523Z,442.17
2023-04-02T15:14:45.562Z,611.50
2023-04-02T15:17:13.621Z,552.50
2023-04-02T15:19:41.142Z,558.10
2023-04-02T15:22:32.673Z,558.10
2023-04-02T15:25:12.310Z,266.90
2023-04-02T15:27:57.054Z,535.67
2023-04-02T15:30:28.612Z,544.17
2023-04-02T15:33:09.239Z,332.30
2023-04-02T15:35:44.486Z,583.63
2023-04-02T15:38:22.554Z,268.37
2023-04-02T15:40:55.741Z,198.73
2023-04-02T15:43:28.410Z,222.63
2023-04-02T15:46:18.485Z,94.60
2023-04-02T15:49:11.045Z,78.60
2023-04-02T15:51:51.265Z,187.97
2023-04-02T15:54:34.629Z,121.53
2023-04-02T15:57:13.099Z,190.23
2023-04-02T15:59:54.452Z,62.57
2023-04-02T16:02:40.465Z,54.07
2023-04-02T16:05:19.167Z,56.10
2023-04-02T16:08:09.047Z,60.13
2023-04-02T16:10:42.981Z,47.30
2023-04-02T16:13:18.730Z,42.20
2023-04-02T16:15:52.064Z,43.60
2023-04-02T16:18:31.214Z,37.87
2023-04-02T16:21:02.300Z,33.50
2023-04-02T16:23:34.947Z,42.90
2023-04-02T16:26:13.009Z,69.97
2023-04-02T16:28:47.373Z,114.67
2023-04-02T16:31:20.752Z,44.93
2023-04-02T16:33:59.519Z,210.70
2023-04-02T16:36:36.466Z,10.03
2023-04-02T16:39:13.880Z,6.70
2023-04-02T16:41:54.090Z,6.63
2023-04-02T16:44:32.485Z,6.57
2023-04-02T16:47:13.232Z,9.77
2023-04-02T16:49:50.758Z,4.87
2023-04-02T16:52:35.586Z,4.50
2023-04-02T16:55:24.225Z,4.73
2023-04-02T16:58:00.322Z,5.50
2023-04-02T17:00:34.923Z,4.57
2023-04-02T17:03:14.728Z,4.73
2023-04-02T17:05:53.945Z,6.77
2023-04-02T17:08:24.455Z,5.63
2023-04-02T17:10:56.575Z,5.83
2023-04-02T17:13:29.717Z,5.40
2023-04-02T17:16:05.828Z,5.10
2023-04-02T17:18:34.517Z,4.60
2023-04-02T17:21:06.309Z,5.27
2023-04-02T17:23:55.330Z,5.33
2023-04-02T17:26:26.978Z,5.10
2023-04-02T17:28:58.302Z,5.67
2023-04-02T17:31:28.188Z,6.30
2023-04-02T17:33:55.701Z,5.57
2023-04-02T17:36:42.168Z,6.30
2023-04-02T17:39:18.450Z,5.73
2023-04-02T17:41:53.144Z,8.57
2023-04-02T17:44:45.911Z,6.43
2023-04-02T17:47:20.335Z,8.50
2023-04-02T17:49:58.483Z,8.00
2023-04-02T17:52:30.899Z,9.00
2023-04-02T17:55:07.528Z,11.90
2023-04-02T17:57:47.262Z,13.23
2023-04-02T18:00:26.536Z,16.23
2023-04-02T18:03:08.509Z,11.10
2023-04-02T18:05:43.392Z,15.10
2023-04-02T18:08:24.083Z,14.57
2023-04-02T18:11:02.414Z,16.20
2023-04-02T18:13:35.479Z,10.43
2023-04-02T18:16:17.941Z,18.03
2023-04-02T18:18:57.783Z,15.47
2023-04-02T18:21:32.047Z,15.67
2023-04-02T18:24:16.281Z,10.93
2023-04-02T18:26:53.661Z,15.07
2023-04-02T18:29:31.806Z,18.60
2023-04-02T18:32:31.573Z,13.33
2023-04-02T18:35:09.903Z,14.63
2023-04-02T18:37:44.443Z,8.87
2023-04-02T18:40:39.399Z,14.20
2023-04-02T18:43:18.866Z,13.63
2023-04-02T18:45:56.194Z,9.40
2023-04-02T18:48:40.738Z,7.47
2023-04-02T18:51:14.546Z,8.43
2023-04-02T18:53:43.201Z,12.97
2023-04-02T18:56:14.394Z,15.47
2023-04-02T18:58:46.988Z,13.53
2023-04-02T19:01:19.129Z,13.43
2023-04-02T19:03:52.340Z,13.17
2023-04-02T19:06:24.273Z,12.77
2023-04-02T19:08:58.242Z,11.30
2023-04-02T19:11:29.650Z,9.67
2023-04-02T19:14:00.575Z,9.37
2023-04-02T19:16:55.736Z,9.67
2023-04-02T19:19:27.792Z,11.50
2023-04-02T19:22:16.646Z,11.50
2023-04-02T19:25:00.575Z,11.60
2023-04-02T19:27:37.981Z,13.47
2023-04-02T19:30:26.300Z,8.97
2023-04-02T19:33:03.339Z,10.30
2023-04-02T19:35:41.116Z,9.30
2023-04-02T19:38:20.089Z,6.83
2023-04-02T19:40:55.745Z,9.30
2023-04-02T19:43:23.249Z,13.20
2023-04-02T19:45:53.178Z,5.40
2023-04-02T19:48:23.397Z,6.80
2023-04-02T19:50:52.219Z,8.70
2023-04-02T19:53:20.140Z,7.83
2023-04-02T19:55:47.643Z,5.33
2023-04-02T19:58:24.185Z,4.47
2023-04-02T20:00:51.714Z,9.13
2023-04-02T20:03:19.241Z,6.43
2023-04-02T20:05:46.909Z,7.47
2023-04-02T20:08:15.797Z,6.93
2023-04-02T20:10:43.709Z,6.17
2023-04-02T20:13:11.286Z,7.40
2023-04-02T20:15:40.309Z,6.60
2023-04-02T20:18:09.247Z,5.97
2023-04-02T20:20:37.026Z,6.10
2023-04-02T20:23:04.681Z,11.77
2023-04-02T20:25:33.523Z,14.27
2023-04-02T20:28:03.658Z,8.17
2023-04-02T20:30:31.587Z,8.27
2023-04-02T20:32:59.358Z,8.13
2023-04-02T20:35:27.485Z,9.17
2023-04-02T20:37:54.991Z,7.80
2023-04-02T20:40:22.546Z,10.80
2023-04-02T20:42:52.630Z,6.13
2023-04-02T20:45:20.142Z,7.50
2023-04-02T20:47:47.691Z,9.10
2023-04-02T20:50:15.547Z,8.13
2023-04-02T20:52:43.013Z,9.13
2023-04-02T20:55:11.103Z,7.07
2023-04-02T20:57:38.675Z,9.60
2023-04-02T21:00:10.170Z,13.23
2023-04-02T21:02:37.789Z,12.07
2023-04-02T21:05:06.133Z,10.40
2023-04-02T21:07:34.336Z,12.87
2023-04-02T21:10:01.841Z,13.73
2023-04-02T21:12:29.379Z,13.50
2023-04-02T21:15:00.354Z,11.03
2023-04-02T21:17:31.313Z,13.17
2023-04-02T21:19:58.813Z,13.17
2023-04-02T21:22:26.253Z,13.50
2023-04-02T21:24:53.731Z,13.00
2023-04-02T21:27:25.456Z,13.13
2023-04-02T21:29:52.921Z,14.27
2023-04-02T21:32:21.958Z,12.10
2023-04-02T21:34:51.097Z,13.13
2023-04-02T21:37:18.580Z,13.90
2023-04-02T21:39:46.131Z,13.47
2023-04-02T21:42:14.315Z,10.90
2023-04-02T21:44:41.790Z,8.37
2023-04-02T21:47:09.266Z,12.40
2023-04-02T21:49:36.761Z,11.80
2023-04-02T21:52:05.836Z,12.37
2023-04-02T21:54:33.361Z,11.47
2023-04-02T21:57:00.856Z,9.57
2023-04-02T21:59:28.441Z,10.70
2023-04-02T22:01:56.111Z,10.13
2023-04-02T22:04:25.792Z,10.40
2023-04-02T22:06:54.017Z,8.73
2023-04-02T22:09:24.771Z,7.27
2023-04-02T22:11:55.228Z,9.23
2023-04-02T22:14:24.235Z,10.63
2023-04-02T22:16:51.887Z,7.57
2023-04-02T22:19:19.567Z,6.20
2023-04-02T22:21:47.112Z,5.63
2023-04-02T22:24:18.555Z,4.77
2023-04-02T22:26:47.702Z,4.87
2023-04-02T22:29:15.704Z,5.67
2023-04-02T22:31:43.425Z,4.97
2023-04-02T22:34:11.055Z,9.53
2023-04-02T22:36:38.538Z,5.90
2023-04-02T22:39:10.310Z,5.63
2023-04-02T22:41:38.339Z,6.27
2023-04-02T22:44:07.192Z,6.47
2023-04-02T22:46:35.010Z,4.77
2023-04-02T22:49:03.175Z,8.13
2023-04-02T22:51:31.014Z,9.03
2023-04-02T22:53:58.632Z,6.83
2023-04-02T22:56:28.699Z,10.40
2023-04-02T22:58:56.298Z,8.67
2023-04-02T23:01:28.247Z,10.77
2023-04-02T23:03:56.767Z,10.70
2023-04-02T23:06:25.523Z,10.23
2023-04-02T23:08:53.642Z,11.43
2023-04-02T23:11:22.837Z,12.33
2023-04-02T23:13:52.528Z,11.93
2023-04-02T23:16:21.227Z,13.77
2023-04-02T23:18:50.136Z,13.23
2023-04-02T23:21:18.767Z,14.07
2023-04-02T23:23:46.557Z,13.33
2023-04-02T23:26:15.518Z,14.77
2023-04-02T23:28:43.508Z,14.63
2023-04-02T23:31:13.839Z,14.33
2023-04-02T23:33:41.428Z,14.27
2023-04-02T23:36:11.954Z,13.77
2023-04-02T23:38:39.433Z,15.47
2023-04-02T23:41:06.944Z,13.63
2023-04-02T23:43:34.732Z,15.63
2023-04-02T23:46:02.233Z,15.43
2023-04-02T23:48:29.704Z,14.10
2023-04-02T23:50:57.253Z,13.90
2023-04-02T23:53:26.273Z,14.10
2023-04-02T23:55:53.841Z,10.63
2023-04-02T23:58:21.407Z,11.77
